createdAt,value
2017-10-08T06:42:03.394Z,3188.00
2017-10-08T07:12:56.007Z,6076.00
2017-10-08T07:19:13.899Z,4284.00
2017-10-08T07:20:12.744Z,4728.00
2017-10-08T07:21:12.723Z,4848.00
2017-10-08T07:22:13.642Z,4744.00
2017-10-08T07:23:13.724Z,5232.00
2017-10-08T07:29:39.326Z,7344.00
2017-10-08T07:49:38.769Z,6312.00
2017-10-08T08:04:40.777Z,12436.00
2017-10-08T08:05:41.181Z,11064.00
2017-10-08T08:18:10.614Z,17224.00
2017-10-08T08:25:11.757Z,16604.00
2017-10-08T08:34:17.843Z,21728.00
2017-10-08T08:35:28.324Z,20608.00
2017-10-08T08:41:33.083Z,18432.00
2017-10-08T08:42:33.500Z,17632.00
2017-10-08T08:43:33.020Z,15532.00
2017-10-08T08:47:51.488Z,17208.00
2017-10-08T08:52:29.483Z,21568.00
2017-10-08T09:01:22.722Z,12484.00
2017-10-08T09:02:15.113Z,10980.00
2017-10-08T10:53:10.612Z,17728.00
2017-10-08T10:56:55.666Z,16712.00
2017-10-08T10:58:18.334Z,16156.00
2017-10-08T10:58:49.806Z,15040.00
2017-10-08T11:01:49.170Z,17856.00
2017-10-08T11:02:47.515Z,19040.00
2017-10-08T11:03:48.590Z,21152.00
2017-10-08T11:04:47.393Z,21952.00
2017-10-08T11:05:47.211Z,22592.00
2017-10-08T11:06:47.321Z,19360.00
2017-10-08T11:07:47.798Z,14024.00
2017-10-08T11:16:26.598Z,15552.00
2017-10-08T11:19:35.001Z,16500.00
2017-10-08T11:20:35.466Z,17000.00
2017-10-08T11:21:35.761Z,16656.00
2017-10-08T11:22:35.369Z,17276.00
2017-10-08T11:23:35.747Z,16848.00
2017-10-08T11:24:35.328Z,15356.00
2017-10-08T11:25:35.306Z,13148.00
2017-10-08T11:26:35.309Z,13504.00
2017-10-08T11:27:37.291Z,13636.00
2017-10-08T11:30:30.429Z,24864.00
2017-10-08T11:31:28.012Z,24576.00
2017-10-08T11:32:28.066Z,22656.00
2017-10-08T11:33:27.543Z,21600.00
2017-10-08T11:34:27.453Z,28608.00
2017-10-08T11:35:28.951Z,33024.00
2017-10-08T11:36:27.994Z,33280.00
2017-10-08T11:37:27.925Z,34240.00
2017-10-08T11:38:27.802Z,31232.00
2017-10-08T11:39:28.333Z,27104.00
2017-10-08T11:40:27.338Z,22432.00
2017-10-08T11:41:27.975Z,21184.00
2017-10-08T11:42:28.489Z,20928.00
2017-10-08T11:43:27.138Z,19200.00
2017-10-08T11:44:26.954Z,19744.00
2017-10-08T11:45:26.646Z,19744.00
2017-10-08T11:46:26.553Z,18976.00
2017-10-08T11:47:26.683Z,19264.00
2017-10-08T11:48:26.823Z,20416.00
2017-10-08T11:49:26.562Z,21728.00
2017-10-08T11:50:26.528Z,23296.00
2017-10-08T11:51:26.788Z,29792.00
2017-10-08T11:52:26.431Z,20000.00
2017-10-08T11:53:26.370Z,21920.00
2017-10-08T11:54:26.572Z,23200.00
2017-10-08T11:55:26.241Z,21184.00
2017-10-08T11:56:26.329Z,17460.00
2017-10-08T11:57:26.242Z,17108.00
2017-10-08T11:58:26.240Z,16036.00
2017-10-08T11:59:26.252Z,12876.00
2017-10-08T12:00:26.197Z,10424.00
2017-10-08T12:01:26.149Z,8588.00
2017-10-08T12:02:26.098Z,9112.00
2017-10-08T12:03:26.027Z,7844.00
2017-10-08T12:04:26.136Z,7428.00
2017-10-08T12:05:25.939Z,8600.00
2017-10-08T12:09:30.018Z,8296.00
2017-10-08T12:10:26.922Z,7584.00
2017-10-08T12:13:08.174Z,3836.00
2017-10-08T12:14:08.184Z,3584.00
